Weather at Westlock Airport

Public forecast

Using degrees Celsius for public forecast. Weather courtesy of forecast.io.

Closest aviation weather report (METAR) to Westlock Airport

Closest report is Edmonton / Villeneuve Airport, 28.8 nm (53.3 km) S. Retrieved 2021/09/18 08:00 UTC (40 minutes ago):

CZVL 180800Z AUTO 19002KT 9SM CLR 05/00 A2939 RMK SLP962 DENSITY ALT 2300FT

Closest aviation forecast (TAF) to Westlock Airport

Closest forecast is Edmonton / Villeneuve Airport, 28.8 nm (53.3 km) S. Retrieved 2021/09/18 06:00 UTC (3 hours ago):

TAF CZVL 180538Z 1806/1818 VRB03KT P6SM FEW100 BKN240 BECMG 1810/1812 12007KT BECMG 1813/1815 25007KT FM181500 25007KT P6SM SCT150 BKN240 BECMG 1816/1818 27010G20KT RMK FCST BASED ON AUTO OBS NXT FCST BY 181200Z